Details From LJLJ - Ljubljana
To EDDN - Nurnberg
Flight Number -
Tags Generated
Created
Modified
Stats Distance 239 nm / 442 km
Max Altitude 0 ft / 0 m
Waypoints 3
Social Downloads 11
Likes 0
Share VATSIM

Download

Looking for another format? Having issues loading an existing format? Contact us
Advertisement - Login to hide

Notes

Generated

Route

LJLJ R2145 EDDN

ID Type Via Altitude Latitude Longitude Leg Dist Tot Dist Heading (true) Name
O LJLJ APT - 0 ft / 0 m 46.23249˚ 14.44039˚ - 0 nm - -
R2145 FIX - 0 ft / 0 m 49.50055˚ 11.05917˚ 238 nm 238 nm 326° / 324° -
O EDDN APT - 0 ft / 0 m 49.50055˚ 11.05918˚ 0 nm 238 nm 68° / 68° -

Altitude Profile

Advertisement - Login to hide

Weather


0- 5 10 15 20 25 30 35+ Temperature / ° C

Clouds and Precipitation
Forecast for 2017-12-14 00:00 UTC. Updated 2 hours ago

Ground ~20,000 ft ~40,000 ft Winds

LJLJ

Details ICAO LJLJ (LJU)
Name LJUBLJANA
Region Slovenia
Timezone Europe/Ljubljana (UTC+1.0)
Stats Elevation 1,273 ft / 388 m (AMSL)
Location 46.223685° 14.457608°
Runways 1
Magnetic Variation 3.661° E

METAR

LJLJ 140100Z 28003KT 6000 FEW003 OVC030 00/M00 Q1009 NOSIG

Decode

TAF

TAF TAF LJLJ 132000Z 1321/1421 30003KT 7000 FEW003 OVC035 TEMPO 1321/1323 3500 -SN BR BKN010 OVC020 TEMPO 1323/1410 3500 -RA BR BKN010 OVC020 PROB40 TEMPO 1321/1408 0500 FZFG BECMG 1408/1410 27005KT 9999 TEMPO 1412/1418 27010KT SCT035 TEMPO 1416/1421 7000 SHRA SCT030TCU BKN035

Decode

Departure Runways

ID Width Length Bearing (true) Bearing (mag) Surface Threshold Offset Overrun Length
13 148 ft / 45 m 10,811 ft / 3,295 m 126.47° 122.81° Asphalt 0 ft / 0 m 0 ft / 0 m
31 148 ft / 45 m 10,811 ft / 3,295 m 306.49° 302.83° Asphalt 0 ft / 0 m 0 ft / 0 m

EDDN

Details ICAO EDDN (NUE)
Name Nurnberg
Region Germany - Civil
Timezone Europe/Berlin (UTC+1.0)
Stats Elevation 1,045 ft / 319 m (AMSL)
Location 49.498744° 11.077580°
Runways 1
Magnetic Variation 3.018° E

METAR

EDDN 140120Z 20012KT 9999 -SHRA SCT014 BKN022 04/02 Q0995 R28/29//94

Decode

TAF

TAF TAF EDDN 132300Z 1400/1424 20015G25KT 9999 SCT020 BKN040 TEMPO 1400/1406 4000 SHRA BKN015TCU BECMG 1403/1406 24015G35KT PROB30 TEMPO 1413/1418 4000 SHRAGS BKN012CB BECMG 1416/1418 19010KT TEMPO 1418/1424 SHRASN BKN014TCU

Decode

Destination Runways

ID Width Length Bearing (true) Bearing (mag) Surface Threshold Offset Overrun Length
10 148 ft / 45 m 8,819 ft / 2,688 m 98.60° 95.58° Asphalt 0 ft / 0 m 0 ft / 0 m
28 148 ft / 45 m 8,819 ft / 2,688 m 278.63° 275.61° Asphalt 0 ft / 0 m 0 ft / 0 m

Approach Navaids

Runway Type Ident Frequency Range Bearing (true) Bearing (mag) Slope Elevation
10 Localiser INUE 111.30 MHz 18 nm / 33 km 98.64° 95.62° - 1,046 ft / 319 m (AMSL)
10 Glidescope INUE 111.30 MHz 10 nm / 19 km 98.61° 95.60° 3.00° 1,022 ft / 312 m (AMSL)
28 Localiser INUW 109.10 MHz 23 nm / 43 km 278.59° 275.57° - 1,122 ft / 342 m (AMSL)
28 Glidescope INUW 109.10 MHz 10 nm / 19 km 278.62° 275.60° 3.00° 1,046 ft / 319 m (AMSL)